Time;durP1;ratioP1;P1;durP2;ratioP2;P2;SDS_P1;SDS_P2;PMS_P1;PMS_P2;Temp;Humidity;BMP_temperature;BMP_pressure;BME280_temperature;BME280_humidity;BME280_pressure;Samples;Min_cycle;Max_cycle;Signal;HPM_P1;HPM_P2
2021/09/10 00:00:45;;;;;;;3.80;2.28;;;22.30;93.30;;;;;;4993539;28;20038;-73
2021/09/10 00:03:10;;;;;;;3.97;2.53;;;22.30;93.40;;;;;;4994004;28;20030;-73
2021/09/10 00:05:36;;;;;;;3.92;1.92;;;22.30;93.40;;;;;;4992566;28;20026;-72
2021/09/10 00:08:02;;;;;;;2.85;2.10;;;22.30;93.50;;;;;;4992242;28;20030;-71
2021/09/10 00:10:28;;;;;;;3.65;2.53;;;22.30;93.60;;;;;;4993545;28;20117;-73
2021/09/10 00:12:54;;;;;;;6.78;2.17;;;22.20;93.70;;;;;;4992167;28;20286;-72
2021/09/10 00:15:19;;;;;;;3.95;2.47;;;22.20;93.70;;;;;;4993472;28;20038;-71
2021/09/10 00:17:45;;;;;;;5.25;2.38;;;22.30;93.60;;;;;;4993670;28;20088;-71
2021/09/10 00:20:12;;;;;;;3.88;2.22;;;22.30;93.70;;;;;;4993191;28;20480;-72
2021/09/10 00:22:37;;;;;;;5.55;2.80;;;22.30;93.60;;;;;;4993084;28;20046;-71
2021/09/10 00:25:03;;;;;;;5.35;2.92;;;22.30;93.70;;;;;;4993215;28;20582;-72
2021/09/10 00:27:29;;;;;;;5.75;2.88;;;22.30;93.90;;;;;;4993149;28;20038;-73
2021/09/10 00:29:55;;;;;;;5.95;2.80;;;22.20;94.00;;;;;;4993425;28;20034;-72
2021/09/10 00:32:20;;;;;;;6.97;3.10;;;22.20;94.10;;;;;;4993213;28;20034;-73
2021/09/10 00:34:46;;;;;;;3.85;3.20;;;22.30;94.20;;;;;;4992910;28;20042;-73
2021/09/10 00:37:11;;;;;;;3.50;2.90;;;22.30;94.00;;;;;;4992602;28;20046;-72
2021/09/10 00:39:37;;;;;;;5.10;2.95;;;22.30;94.30;;;;;;4993047;28;20045;-72
2021/09/10 00:42:03;;;;;;;5.35;3.15;;;22.30;94.30;;;;;;4993306;28;20056;-71
2021/09/10 00:44:29;;;;;;;8.20;4.03;;;22.30;94.30;;;;;;4992961;28;20034;-72
2021/09/10 00:46:55;;;;;;;8.43;3.70;;;22.30;94.40;;;;;;4992897;28;20084;-73
2021/09/10 00:49:20;;;;;;;3.85;2.70;;;22.20;94.60;;;;;;4992741;28;20077;-72
2021/09/10 00:51:47;;;;;;;9.18;3.25;;;22.20;94.60;;;;;;4992116;28;20077;-72
2021/09/10 00:54:12;;;;;;;6.93;2.95;;;22.20;94.30;;;;;;4992916;28;20030;-73
2021/09/10 00:56:39;;;;;;;4.88;3.00;;;22.20;94.20;;;;;;4992683;28;20495;-73
2021/09/10 00:59:05;;;;;;;4.78;2.55;;;22.20;94.40;;;;;;4992974;28;20114;-72
2021/09/10 01:01:32;;;;;;;5.60;2.80;;;22.00;94.50;;;;;;4992786;28;20479;-72
2021/09/10 01:03:58;;;;;;;2.70;2.20;;;22.10;94.40;;;;;;4992476;28;20033;-72
2021/09/10 01:06:25;;;;;;;4.50;2.53;;;22.00;94.50;;;;;;4992321;28;20081;-72
2021/09/10 01:08:52;;;;;;;6.45;2.50;;;22.00;94.70;;;;;;4992782;28;20081;-71
2021/09/10 01:11:19;;;;;;;2.78;2.30;;;21.90;94.70;;;;;;4992352;28;20093;-71
2021/09/10 01:13:46;;;;;;;4.75;2.85;;;21.90;94.60;;;;;;4992624;28;20453;-71
2021/09/10 01:16:13;;;;;;;8.15;3.00;;;21.90;94.80;;;;;;4992742;28;20027;-72
2021/09/10 01:18:38;;;;;;;4.88;3.00;;;21.90;94.90;;;;;;4992459;28;20053;-72
2021/09/10 01:21:04;;;;;;;6.10;3.75;;;21.80;95.10;;;;;;4992523;28;20034;-72
2021/09/10 01:23:30;;;;;;;6.28;2.55;;;21.80;95.30;;;;;;4992191;28;20081;-72
2021/09/10 01:25:55;;;;;;;3.85;2.75;;;21.80;95.20;;;;;;4992115;28;20053;-73
2021/09/10 01:28:21;;;;;;;6.20;3.00;;;21.80;95.10;;;;;;4992075;28;20038;-72
2021/09/10 01:30:47;;;;;;;5.50;2.95;;;21.80;95.50;;;;;;4992368;28;20035;-72
2021/09/10 01:33:12;;;;;;;6.90;3.30;;;21.80;95.50;;;;;;4992393;28;20022;-70
2021/09/10 01:35:38;;;;;;;8.63;3.05;;;21.80;95.50;;;;;;4990937;28;20038;-71
2021/09/10 01:38:06;;;;;;;8.82;3.08;;;21.80;95.60;;;;;;4991916;28;20496;-72
2021/09/10 01:40:32;;;;;;;5.72;3.28;;;21.70;95.90;;;;;;4992188;28;20035;-72
2021/09/10 01:42:57;;;;;;;5.72;3.17;;;21.80;95.60;;;;;;4991962;28;20049;-71
2021/09/10 01:45:23;;;;;;;6.47;3.35;;;21.80;95.70;;;;;;4991842;28;20026;-71
2021/09/10 01:47:49;;;;;;;5.78;3.20;;;21.80;96.00;;;;;;4992473;28;20030;-72
2021/09/10 01:50:17;;;;;;;3.33;2.85;;;21.80;96.10;;;;;;5007174;28;20042;-71
2021/09/10 01:52:43;;;;;;;5.20;3.40;;;21.80;96.10;;;;;;4991837;28;20113;-73
2021/09/10 01:55:12;;;;;;;6.60;3.72;;;21.80;95.90;;;;;;4992000;28;20580;-73
2021/09/10 01:57:38;;;;;;;4.45;3.30;;;21.80;96.10;;;;;;4991696;28;20038;-72
2021/09/10 02:00:05;;;;;;;7.22;3.33;;;21.80;96.00;;;;;;4992164;28;20381;-72
2021/09/10 02:02:31;;;;;;;7.15;3.58;;;21.80;96.40;;;;;;4991846;28;20424;-72
2021/09/10 02:04:57;;;;;;;7.70;3.25;;;21.70;96.50;;;;;;4991769;28;20487;-73
2021/09/10 02:07:22;;;;;;;8.90;3.58;;;21.70;96.50;;;;;;4991823;28;20456;-72
2021/09/10 02:09:48;;;;;;;4.93;3.30;;;21.70;96.50;;;;;;4991820;28;20037;-73
2021/09/10 02:12:14;;;;;;;4.82;3.08;;;21.70;96.30;;;;;;4992005;28;20464;-72
2021/09/10 02:14:40;;;;;;;6.97;3.60;;;21.70;96.60;;;;;;4991856;28;20037;-73
2021/09/10 02:17:06;;;;;;;6.88;4.22;;;21.70;96.60;;;;;;4993766;28;20038;-72
2021/09/10 02:19:32;;;;;;;10.23;3.75;;;21.70;96.70;;;;;;4995293;28;20022;-73
2021/09/10 02:21:58;;;;;;;6.85;3.75;;;21.70;96.70;;;;;;4995368;28;20407;-73
2021/09/10 02:24:24;;;;;;;5.70;3.63;;;21.70;97.00;;;;;;4995269;28;20038;-71
2021/09/10 02:26:49;;;;;;;3.58;3.25;;;21.70;97.20;;;;;;4995821;28;20026;-71
2021/09/10 02:29:15;;;;;;;6.10;3.25;;;21.70;97.50;;;;;;4995195;28;20113;-71
2021/09/10 02:31:41;;;;;;;5.32;3.03;;;21.60;97.80;;;;;;4995256;28;20097;-72
2021/09/10 02:34:07;;;;;;;5.47;3.08;;;21.50;98.20;;;;;;4995191;28;20448;-72
2021/09/10 02:36:34;;;;;;;6.22;3.40;;;21.50;98.40;;;;;;4995136;28;20421;-72
2021/09/10 02:39:01;;;;;;;7.93;3.00;;;21.50;98.50;;;;;;4995519;28;20022;-72
2021/09/10 02:41:26;;;;;;;4.85;3.00;;;21.50;98.60;;;;;;4995244;28;20030;-72
2021/09/10 02:43:52;;;;;;;6.85;3.80;;;21.40;98.80;;;;;;4995206;28;20038;-72
2021/09/10 02:46:18;;;;;;;6.10;3.05;;;21.30;98.70;;;;;;4995018;28;20030;-73
2021/09/10 02:48:43;;;;;;;5.57;3.28;;;21.30;98.90;;;;;;4995031;28;20046;-72
2021/09/10 02:51:09;;;;;;;5.22;3.85;;;21.20;98.90;;;;;;5010739;28;20356;-72
2021/09/10 02:53:34;;;;;;;6.93;3.97;;;21.20;99.00;;;;;;4994754;28;20026;-72
2021/09/10 02:56:00;;;;;;;6.68;3.92;;;21.20;99.00;;;;;;4994723;28;20031;-72
2021/09/10 02:58:27;;;;;;;9.80;4.80;;;21.30;98.90;;;;;;4994601;28;20042;-73
2021/09/10 03:00:52;;;;;;;9.10;4.75;;;21.30;98.90;;;;;;4994889;28;20392;-72
2021/09/10 03:03:18;;;;;;;8.85;4.90;;;21.30;98.80;;;;;;4994717;28;20026;-72
2021/09/10 03:05:44;;;;;;;8.38;5.50;;;21.40;98.90;;;;;;5010651;28;20045;-73
2021/09/10 03:08:09;;;;;;;6.10;4.43;;;21.40;98.90;;;;;;4994089;28;20643;-72
2021/09/10 03:10:35;;;;;;;6.57;4.38;;;21.40;99.20;;;;;;4994466;28;20459;-73
2021/09/10 03:13:00;;;;;;;8.50;4.32;;;21.40;99.10;;;;;;4994757;28;20084;-73
2021/09/10 03:15:26;;;;;;;9.48;5.00;;;21.40;99.00;;;;;;4995384;28;20030;-74
2021/09/10 03:17:52;;;;;;;8.32;5.05;;;21.40;99.40;;;;;;4995706;28;20329;-72
2021/09/10 03:20:18;;;;;;;8.95;5.03;;;21.40;99.40;;;;;;4995422;28;20038;-73
2021/09/10 03:22:43;;;;;;;15.88;5.22;;;21.40;99.30;;;;;;5010142;28;20053;-73
2021/09/10 03:25:10;;;;;;;9.30;5.35;;;21.40;99.20;;;;;;4995060;28;20042;-72
2021/09/10 03:27:36;;;;;;;8.20;4.93;;;21.50;99.20;;;;;;4994173;28;20077;-73
2021/09/10 03:30:07;;;;;;;434.65;275.58;;;21.50;99.00;;;;;;4994915;28;20022;-72
2021/09/10 03:32:32;;;;;;;304.50;182.18;;;21.50;99.50;;;;;;4994988;28;20622;-71
2021/09/10 03:34:58;;;;;;;82.72;48.72;;;21.50;99.30;;;;;;4994770;28;20102;-79
2021/09/10 03:37:24;;;;;;;13.27;8.38;;;21.50;99.60;;;;;;4995043;28;20100;-74
2021/09/10 03:39:49;;;;;;;10.98;6.15;;;21.60;99.60;;;;;;4994959;28;20377;-76
2021/09/10 03:42:15;;;;;;;18.63;6.45;;;21.50;99.90;;;;;;4995258;28;20030;-76
2021/09/10 03:44:41;;;;;;;22.20;7.47;;;21.60;99.90;;;;;;4994873;28;20031;-76
2021/09/10 03:47:06;;;;;;;10.75;7.15;;;21.60;99.90;;;;;;4994314;28;20031;-75
2021/09/10 03:49:33;;;;;;;16.15;7.38;;;21.60;99.90;;;;;;4994294;28;20440;-74
2021/09/10 03:51:59;;;;;;;13.70;7.50;;;21.60;99.90;;;;;;4994030;28;20452;-75
2021/09/10 03:54:24;;;;;;;12.75;6.93;;;21.50;99.90;;;;;;4994120;28;20041;-74
2021/09/10 03:56:50;;;;;;;17.13;8.18;;;21.40;99.90;;;;;;4994339;28;20143;-74
2021/09/10 03:59:15;;;;;;;17.00;8.68;;;21.50;99.90;;;;;;4994070;28;20100;-74
2021/09/10 04:01:41;;;;;;;15.50;9.38;;;21.40;99.90;;;;;;4993983;28;20031;-74
2021/09/10 04:04:07;;;;;;;16.88;9.27;;;21.40;99.90;;;;;;4994001;28;20034;-75
2021/09/10 04:06:32;;;;;;;17.13;9.55;;;21.40;99.90;;;;;;4993673;28;20089;-75
2021/09/10 04:08:58;;;;;;;12.60;8.60;;;21.40;99.90;;;;;;4994249;28;20019;-74
2021/09/10 04:11:23;;;;;;;15.93;9.27;;;21.40;99.90;;;;;;4993826;28;20034;-74
2021/09/10 04:13:49;;;;;;;17.33;9.35;;;21.40;99.90;;;;;;4993729;28;20490;-74
2021/09/10 04:16:14;;;;;;;16.83;8.77;;;21.50;99.90;;;;;;4993870;28;20465;-74
2021/09/10 04:18:40;;;;;;;20.20;8.82;;;21.50;99.90;;;;;;4993736;28;20039;-74
2021/09/10 04:21:05;;;;;;;21.00;9.82;;;21.40;99.90;;;;;;4993826;28;20034;-75
2021/09/10 04:23:31;;;;;;;18.63;8.23;;;21.40;99.90;;;;;;4993496;28;20043;-74
2021/09/10 04:25:57;;;;;;;22.00;8.15;;;21.40;99.90;;;;;;4993354;28;20034;-74
2021/09/10 04:28:22;;;;;;;17.95;8.70;;;21.40;99.90;;;;;;4993318;28;20366;-74
2021/09/10 04:30:48;;;;;;;15.68;8.27;;;21.40;99.90;;;;;;4993242;28;20055;-74
2021/09/10 04:33:13;;;;;;;17.38;8.07;;;21.50;99.90;;;;;;4993905;28;20091;-74
2021/09/10 04:35:39;;;;;;;17.23;8.23;;;21.40;99.90;;;;;;4993255;28;20034;-74
2021/09/10 04:38:04;;;;;;;13.88;7.97;;;21.40;99.90;;;;;;4993228;28;20372;-74
2021/09/10 04:40:30;;;;;;;13.77;8.02;;;21.30;99.90;;;;;;4993007;28;20038;-74
2021/09/10 04:42:56;;;;;;;14.05;7.78;;;21.40;99.90;;;;;;4993143;28;20030;-74
2021/09/10 04:45:22;;;;;;;14.85;7.53;;;21.40;99.90;;;;;;4993141;28;20026;-74
2021/09/10 04:47:48;;;;;;;13.80;8.18;;;21.40;99.90;;;;;;4993619;28;20052;-75
2021/09/10 04:50:14;;;;;;;17.70;8.50;;;21.50;99.90;;;;;;4993109;28;20109;-74
2021/09/10 04:52:40;;;;;;;15.25;8.05;;;21.50;99.90;;;;;;4993097;28;20049;-74
2021/09/10 04:55:09;;;;;;;15.02;8.13;;;21.40;99.90;;;;;;4992760;28;20676;-74
2021/09/10 04:57:36;;;;;;;15.20;8.40;;;21.40;99.90;;;;;;4992374;28;20452;-75
2021/09/10 05:00:02;;;;;;;12.80;8.10;;;21.30;99.90;;;;;;4993348;28;20030;-75
2021/09/10 05:02:28;;;;;;;14.35;8.50;;;21.30;99.90;;;;;;4992892;28;20078;-74
2021/09/10 05:04:54;;;;;;;13.80;8.63;;;21.30;99.90;;;;;;4992720;28;20057;-74
2021/09/10 05:07:19;;;;;;;15.35;8.45;;;21.30;99.90;;;;;;4993043;28;20033;-75
2021/09/10 05:09:45;;;;;;;13.48;8.15;;;21.40;99.90;;;;;;4992839;28;20045;-75
2021/09/10 05:12:10;;;;;;;11.48;9.07;;;21.30;99.90;;;;;;4993134;28;20040;-74
2021/09/10 05:14:36;;;;;;;14.68;9.13;;;21.30;99.90;;;;;;4992608;28;20030;-74
2021/09/10 05:17:02;;;;;;;12.18;8.38;;;21.20;99.90;;;;;;4992484;28;20033;-74
2021/09/10 05:19:28;;;;;;;14.77;8.80;;;21.30;99.90;;;;;;4992225;28;20483;-75
2021/09/10 05:21:53;;;;;;;13.02;8.38;;;21.20;99.90;;;;;;4992161;28;20081;-75
2021/09/10 05:24:19;;;;;;;15.35;8.60;;;21.20;99.90;;;;;;4992251;28;20088;-75
2021/09/10 05:26:45;;;;;;;15.57;9.00;;;21.20;99.90;;;;;;4992662;28;20421;-75
2021/09/10 05:29:10;;;;;;;14.55;8.80;;;21.20;99.90;;;;;;4992417;28;20030;-75
2021/09/10 05:31:36;;;;;;;17.95;8.57;;;21.30;99.90;;;;;;4991889;28;20045;-75
2021/09/10 05:34:01;;;;;;;15.38;8.88;;;21.20;99.90;;;;;;4992154;28;20069;-75
2021/09/10 05:36:27;;;;;;;18.08;9.10;;;21.20;99.90;;;;;;4991862;28;20109;-73
2021/09/10 05:38:53;;;;;;;13.77;8.20;;;21.30;99.90;;;;;;4992407;28;20659;-75
2021/09/10 05:41:18;;;;;;;10.63;7.65;;;21.30;99.90;;;;;;4991918;28;20427;-74
2021/09/10 05:43:44;;;;;;;10.50;7.88;;;21.30;99.90;;;;;;4991961;28;20166;-75
2021/09/10 05:46:10;;;;;;;17.40;8.52;;;21.40;99.90;;;;;;5007229;28;20069;-75
2021/09/10 05:48:36;;;;;;;17.25;9.07;;;21.30;99.90;;;;;;4991809;28;20460;-76
2021/09/10 05:51:02;;;;;;;17.17;10.30;;;21.30;99.90;;;;;;4991755;28;20345;-75
2021/09/10 05:53:29;;;;;;;14.52;9.45;;;21.30;99.90;;;;;;4995733;28;20081;-75
2021/09/10 05:55:55;;;;;;;17.33;10.25;;;21.30;99.90;;;;;;4995756;28;20105;-76
2021/09/10 05:58:21;;;;;;;15.02;8.50;;;21.20;99.90;;;;;;4995784;28;20432;-77
2021/09/10 06:00:46;;;;;;;12.20;8.27;;;21.30;99.90;;;;;;4995793;28;20452;-81
2021/09/10 06:03:12;;;;;;;15.30;8.65;;;21.30;99.90;;;;;;4996309;28;20575;-73
2021/09/10 06:05:37;;;;;;;10.93;7.93;;;21.30;99.90;;;;;;4995592;28;20368;-74
2021/09/10 06:08:03;;;;;;;16.83;8.98;;;21.20;99.90;;;;;;4995760;28;20026;-73
2021/09/10 06:10:29;;;;;;;16.48;8.20;;;21.20;99.90;;;;;;4997217;28;20034;-80
2021/09/10 06:12:54;;;;;;;14.57;9.48;;;21.30;99.90;;;;;;4995497;28;20109;-74
2021/09/10 06:15:23;;;;;;;15.10;8.57;;;21.30;99.90;;;;;;4995700;28;20022;-79
2021/09/10 06:17:49;;;;;;;13.05;7.97;;;21.20;99.90;;;;;;4995922;28;20487;-74
2021/09/10 06:20:15;;;;;;;18.17;8.57;;;21.30;99.90;;;;;;4995521;28;20026;-71
2021/09/10 06:22:40;;;;;;;13.13;7.90;;;21.30;99.90;;;;;;4994129;28;20046;-75
2021/09/10 06:25:09;;;;;;;13.40;9.20;;;21.30;99.90;;;;;;4995537;28;20038;-78
2021/09/10 06:27:34;;;;;;;10.68;8.18;;;21.30;99.90;;;;;;4995348;28;20479;-82
2021/09/10 06:30:00;;;;;;;12.20;8.48;;;21.20;99.90;;;;;;4996185;28;20030;-75
2021/09/10 06:32:26;;;;;;;14.60;9.13;;;21.30;99.90;;;;;;4995538;28;20522;-78
2021/09/10 06:34:52;;;;;;;13.13;8.80;;;21.30;99.90;;;;;;4994025;28;20318;-80
2021/09/10 06:37:18;;;;;;;15.23;7.82;;;21.20;99.90;;;;;;4995361;28;20041;-80
2021/09/10 06:39:45;;;;;;;12.68;8.38;;;21.30;99.90;;;;;;4995190;28;20380;-74
2021/09/10 06:42:10;;;;;;;16.05;7.72;;;21.20;99.90;;;;;;4995446;28;20065;-76
2021/09/10 06:44:36;;;;;;;11.07;7.90;;;21.20;99.90;;;;;;4995386;28;20050;-86
2021/09/10 06:47:02;;;;;;;16.63;8.15;;;21.20;99.90;;;;;;4995481;28;20038;-81
2021/09/10 06:49:27;;;;;;;14.23;8.07;;;21.30;99.90;;;;;;4994068;28;20030;-76
2021/09/10 06:51:53;;;;;;;11.52;8.15;;;21.30;99.90;;;;;;4995267;28;20113;-84
2021/09/10 06:54:18;;;;;;;11.15;7.78;;;21.30;99.90;;;;;;4995393;28;20042;-79
2021/09/10 06:56:44;;;;;;;14.13;8.73;;;21.20;99.90;;;;;;4995294;28;20022;-75
2021/09/10 06:59:09;;;;;;;14.38;8.75;;;21.20;99.90;;;;;;4995752;28;20491;-80
2021/09/10 07:01:35;;;;;;;15.38;8.90;;;21.20;99.90;;;;;;4994483;28;20030;-72
2021/09/10 07:04:01;;;;;;;15.02;8.48;;;21.20;99.90;;;;;;4993966;28;20049;-72
2021/09/10 07:06:29;;;;;;;18.15;9.00;;;21.20;99.90;;;;;;4994278;28;20461;-75
2021/09/10 07:08:55;;;;;;;;;;;21.10;99.90;;;;;;4995304;28;20026;-76
2021/09/10 07:11:20;;;;;;;14.57;8.48;;;21.10;99.90;;;;;;4994583;28;20386;-79
2021/09/10 07:13:47;;;;;;;12.85;8.82;;;21.10;99.90;;;;;;4993500;28;20491;-74
2021/09/10 07:16:13;;;;;;;14.52;8.77;;;21.10;99.90;;;;;;4994606;28;20034;-76
2021/09/10 07:18:39;;;;;;;13.48;9.02;;;21.20;99.90;;;;;;4993358;28;20042;-82
2021/09/10 07:21:04;;;;;;;15.38;8.88;;;21.10;99.90;;;;;;4993722;28;20037;-78
2021/09/10 07:23:31;;;;;;;16.83;11.75;;;21.10;99.90;;;;;;4994220;28;20042;-80
2021/09/10 07:26:02;;;;;;;20.55;12.05;;;21.20;99.90;;;;;;4994302;28;20125;-77
2021/09/10 07:28:28;;;;;;;14.75;10.23;;;21.30;99.90;;;;;;4991187;28;20093;-74
2021/09/10 07:30:53;;;;;;;12.32;8.80;;;21.40;99.90;;;;;;4994719;28;20116;-72
2021/09/10 07:33:19;;;;;;;23.73;12.15;;;21.40;99.90;;;;;;4994266;28;20407;-73
2021/09/10 07:35:44;;;;;;;22.42;13.77;;;21.40;99.90;;;;;;4994773;28;20041;-74
2021/09/10 07:38:10;;;;;;;18.40;10.88;;;21.40;99.90;;;;;;4994371;28;20501;-74
2021/09/10 07:40:35;;;;;;;16.45;9.23;;;21.40;99.90;;;;;;4994326;28;20345;-75
2021/09/10 07:43:01;;;;;;;17.55;9.20;;;21.40;99.90;;;;;;4993995;28;20486;-76
2021/09/10 07:45:26;;;;;;;14.88;8.80;;;21.50;99.90;;;;;;4993261;28;20041;-77
2021/09/10 07:47:52;;;;;;;14.95;8.48;;;21.70;99.90;;;;;;4993897;28;20042;-75
2021/09/10 07:50:18;;;;;;;14.73;9.13;;;21.70;99.90;;;;;;4994206;28;20121;-77
2021/09/10 07:52:43;;;;;;;13.07;8.85;;;21.80;99.90;;;;;;4993830;28;20506;-75
2021/09/10 07:55:09;;;;;;;17.05;9.50;;;21.80;99.90;;;;;;4994028;28;20130;-75
2021/09/10 07:57:35;;;;;;;19.10;9.27;;;21.90;99.90;;;;;;4992645;28;20474;-76
2021/09/10 08:00:01;;;;;;;13.98;9.27;;;22.00;99.90;;;;;;4994246;28;20049;-76
2021/09/10 08:02:26;;;;;;;13.82;9.43;;;22.00;99.90;;;;;;4994108;28;20042;-76
2021/09/10 08:04:52;;;;;;;14.50;8.75;;;22.10;99.90;;;;;;4993859;28;20045;-76
2021/09/10 08:07:18;;;;;;;14.65;8.88;;;22.20;99.90;;;;;;4993982;28;20046;-76
2021/09/10 08:09:44;;;;;;;17.88;10.65;;;22.10;99.90;;;;;;4992762;28;20034;-78
2021/09/10 08:12:09;;;;;;;19.75;10.40;;;22.10;99.90;;;;;;4993949;28;20022;-75
2021/09/10 08:14:35;;;;;;;18.73;10.27;;;22.10;99.90;;;;;;4993303;28;20475;-73
2021/09/10 08:17:00;;;;;;;18.50;10.98;;;22.10;99.90;;;;;;4993565;28;20034;-80
2021/09/10 08:19:26;;;;;;;15.68;10.00;;;22.20;99.90;;;;;;4993628;28;20034;-75
2021/09/10 08:21:51;;;;;;;16.95;10.00;;;22.20;99.90;;;;;;4993120;28;20492;-74
2021/09/10 08:24:17;;;;;;;14.65;9.85;;;22.30;99.90;;;;;;4993076;28;20033;-74
2021/09/10 08:26:43;;;;;;;15.13;10.45;;;22.20;99.90;;;;;;4993238;28;20029;-77
2021/09/10 08:29:08;;;;;;;20.10;10.50;;;22.30;99.90;;;;;;4993050;28;20096;-77
2021/09/10 08:31:34;;;;;;;19.67;10.52;;;22.40;99.90;;;;;;4993304;28;20216;-74
2021/09/10 08:34:02;;;;;;;15.55;9.73;;;22.30;99.90;;;;;;4993018;28;20030;-74
2021/09/10 08:36:28;;;;;;;20.02;10.65;;;22.40;99.90;;;;;;4993313;28;20133;-74
2021/09/10 08:38:53;;;;;;;15.90;9.05;;;22.40;99.90;;;;;;4993711;28;20041;-76
2021/09/10 08:41:23;;;;;;;16.10;9.45;;;22.50;99.90;;;;;;4992769;28;20031;-73
2021/09/10 08:43:49;;;;;;;16.88;10.63;;;22.60;99.90;;;;;;4992737;28;20034;-77
2021/09/10 08:46:16;;;;;;;17.85;10.55;;;22.70;99.90;;;;;;4992953;28;20133;-73
2021/09/10 08:48:48;;;;;;;17.27;9.45;;;22.70;99.90;;;;;;4992732;28;20034;-72
2021/09/10 08:51:16;;;;;;;16.08;9.65;;;22.70;99.90;;;;;;4993071;28;20022;-75
2021/09/10 08:53:42;;;;;;;19.13;11.80;;;22.70;99.90;;;;;;4992884;28;20038;-74
2021/09/10 08:56:08;;;;;;;16.23;10.43;;;22.80;99.90;;;;;;4992550;28;20034;-73
2021/09/10 08:58:33;;;;;;;14.65;10.32;;;22.90;99.90;;;;;;4992159;28;20046;-74
2021/09/10 09:01:00;;;;;;;18.13;10.40;;;22.90;99.90;;;;;;4992501;28;20040;-75
2021/09/10 09:03:32;;;;;;;34.17;19.83;;;23.10;99.90;;;;;;4992891;28;20081;-75
2021/09/10 09:05:58;;;;;;;14.82;9.27;;;23.30;99.90;;;;;;4993113;28;20026;-73
2021/09/10 09:08:24;;;;;;;14.85;8.70;;;23.50;99.90;;;;;;4992514;28;20364;-73
2021/09/10 09:10:58;;;;;;;16.55;8.45;;;23.80;99.90;;;;;;4992566;28;20092;-73
2021/09/10 09:13:36;;;;;;;13.25;8.88;;;24.20;99.80;;;;;;4992640;28;20038;-73
2021/09/10 09:16:38;;;;;;;14.80;8.38;;;24.40;98.90;;;;;;4992518;28;20042;-78
2021/09/10 09:19:06;;;;;;;13.30;8.50;;;24.70;98.20;;;;;;4951379;29;20086;-76
2021/09/10 09:21:37;;;;;;;13.27;9.10;;;24.90;97.70;;;;;;4984760;28;20042;-72
2021/09/10 09:24:16;;;;;;;14.15;8.60;;;25.20;97.70;;;;;;4992955;28;20113;-74
2021/09/10 09:26:44;;;;;;;17.48;9.27;;;25.70;97.10;;;;;;4991836;28;20105;-76
2021/09/10 09:29:14;;;;;;;13.00;8.90;;;26.00;96.60;;;;;;4992120;28;20054;-72
2021/09/10 09:31:41;;;;;;;19.17;10.05;;;25.90;95.60;;;;;;4992594;28;20060;-75
2021/09/10 09:34:07;;;;;;;22.98;11.07;;;25.60;96.10;;;;;;4992328;28;20147;-75
2021/09/10 09:36:34;;;;;;;14.35;9.27;;;25.90;96.10;;;;;;4992496;28;20026;-79
2021/09/10 09:39:09;;;;;;;14.65;9.48;;;25.90;95.60;;;;;;4992845;28;20030;-77
2021/09/10 09:41:41;;;;;;;13.13;8.30;;;26.00;95.80;;;;;;4992142;28;20030;-78
2021/09/10 09:44:13;;;;;;;14.60;8.65;;;26.10;95.40;;;;;;4992243;28;20034;-75
2021/09/10 09:46:41;;;;;;;15.88;8.48;;;26.20;95.70;;;;;;4991364;28;20026;-75
2021/09/10 09:49:13;;;;;;;12.15;8.63;;;26.50;95.70;;;;;;4992174;28;20050;-75
2021/09/10 09:51:57;;;;;;;13.80;7.78;;;26.70;94.90;;;;;;4992093;28;20057;-82
2021/09/10 09:54:22;;;;;;;15.13;8.15;;;27.10;94.10;;;;;;4991883;28;20192;-75
2021/09/10 09:56:49;;;;;;;14.85;8.80;;;27.00;93.90;;;;;;4992392;28;20141;-78
2021/09/10 09:59:16;;;;;;;13.07;8.32;;;26.70;94.00;;;;;;4992021;28;20034;-77
2021/09/10 10:01:43;;;;;;;16.10;9.43;;;26.30;94.30;;;;;;4992391;28;20089;-77
2021/09/10 10:04:09;;;;;;;13.95;9.05;;;26.50;94.20;;;;;;4992236;28;20134;-76
2021/09/10 10:06:35;;;;;;;13.63;9.00;;;26.10;94.40;;;;;;4992258;28;20114;-77
2021/09/10 10:09:07;;;;;;;14.75;9.32;;;25.90;94.60;;;;;;4992364;28;20077;-76
2021/09/10 10:11:46;;;;;;;13.90;9.70;;;26.00;95.00;;;;;;4991938;28;20037;-77
2021/09/10 10:14:29;;;;;;;15.70;9.20;;;26.10;94.90;;;;;;4992135;28;20054;-76
2021/09/10 10:16:55;;;;;;;11.88;9.00;;;26.90;94.30;;;;;;4992044;28;20474;-74
2021/09/10 10:19:20;;;;;;;13.95;9.20;;;27.50;93.50;;;;;;4991840;28;20133;-77
2021/09/10 10:22:07;;;;;;;12.95;8.23;;;28.20;91.60;;;;;;4991897;28;20046;-78
2021/09/10 10:24:52;;;;;;;13.65;8.82;;;28.50;91.30;;;;;;4992175;28;20049;-74
2021/09/10 10:27:24;;;;;;;11.02;8.57;;;29.70;90.50;;;;;;4991234;28;20495;-79
2021/09/10 10:29:50;;;;;;;14.57;8.93;;;30.10;88.70;;;;;;4992397;28;20488;-77
2021/09/10 10:32:38;;;;;;;16.08;8.98;;;29.90;89.20;;;;;;4991705;28;20085;-79
2021/09/10 10:35:23;;;;;;;14.63;9.45;;;29.50;89.10;;;;;;4991856;28;20080;-76
2021/09/10 10:38:01;;;;;;;15.23;8.95;;;29.60;87.70;;;;;;4993449;28;20050;-80
2021/09/10 10:40:32;;;;;;;10.77;8.77;;;30.00;87.20;;;;;;4994956;28;20037;-76
2021/09/10 10:43:00;;;;;;;18.15;8.75;;;30.40;86.80;;;;;;4994841;28;20479;-77
2021/09/10 10:45:46;;;;;;;15.45;8.80;;;30.60;85.70;;;;;;4995038;28;20445;-75
2021/09/10 10:48:32;;;;;;;11.63;8.40;;;31.70;83.60;;;;;;4995710;28;20057;-75
2021/09/10 10:51:06;;;;;;;25.05;18.25;;;31.90;81.70;;;;;;4995358;28;20034;-74
2021/09/10 10:53:47;;;;;;;13.73;10.30;;;32.40;81.50;;;;;;4995113;28;20088;-75
2021/09/10 10:56:21;;;;;;;14.68;9.23;;;33.10;76.00;;;;;;4994832;28;20463;-76
2021/09/10 10:59:07;;;;;;;15.82;9.40;;;33.30;76.10;;;;;;4995257;28;20054;-75
2021/09/10 11:02:11;;;;;;;11.15;8.18;;;32.40;74.60;;;;;;4994855;28;20246;-74
2021/09/10 11:04:47;;;;;;;10.27;6.90;;;32.30;77.00;;;;;;4994809;28;20036;-74
2021/09/10 11:07:13;;;;;;;10.50;7.95;;;32.20;75.70;;;;;;4994924;28;20057;-74
2021/09/10 11:09:39;;;;;;;15.95;9.13;;;31.80;75.50;;;;;;4994968;28;20038;-74
2021/09/10 11:12:05;;;;;;;10.63;7.82;;;31.50;76.40;;;;;;4995229;28;20057;-73
2021/09/10 11:14:33;;;;;;;10.52;7.55;;;31.50;76.90;;;;;;4994629;28;20472;-74
2021/09/10 11:17:12;;;;;;;14.45;8.93;;;31.60;77.10;;;;;;4994763;28;20087;-74
2021/09/10 11:19:44;;;;;;;13.00;8.50;;;31.90;75.20;;;;;;4993489;28;20045;-72
2021/09/10 11:22:09;;;;;;;15.70;9.38;;;32.70;74.20;;;;;;4994196;28;20198;-73
2021/09/10 11:24:35;;;;;;;15.10;10.00;;;31.70;74.20;;;;;;4994560;28;20389;-75
2021/09/10 11:27:00;;;;;;;13.75;9.52;;;31.60;74.70;;;;;;4994547;28;20350;-76
2021/09/10 11:29:37;;;;;;;12.70;9.30;;;31.30;74.90;;;;;;4993116;28;20501;-74
2021/09/10 11:32:26;;;;;;;12.75;8.23;;;31.50;76.30;;;;;;4994529;28;20480;-75
2021/09/10 11:34:53;;;;;;;13.68;8.57;;;31.50;75.30;;;;;;4994221;28;20122;-72
2021/09/10 11:37:41;;;;;;;14.03;9.57;;;31.30;75.10;;;;;;4994188;28;20125;-71
2021/09/10 11:40:07;;;;;;;13.93;9.43;;;30.30;76.50;;;;;;4993563;28;20264;-72
2021/09/10 11:42:37;;;;;;;15.52;9.00;;;29.80;78.30;;;;;;4994077;28;20101;-75
2021/09/10 11:45:12;;;;;;;15.00;9.50;;;29.60;79.60;;;;;;4994735;28;20023;-75
2021/09/10 11:47:40;;;;;;;12.45;9.50;;;29.30;80.20;;;;;;4994041;28;20034;-75
2021/09/10 11:50:09;;;;;;;18.80;13.20;;;29.00;81.10;;;;;;4992921;28;20138;-76
2021/09/10 11:52:41;;;;;;;16.35;13.00;;;28.90;81.80;;;;;;4993939;28;20041;-77
2021/09/10 11:55:07;;;;;;;14.80;9.70;;;28.80;82.90;;;;;;4993797;28;20045;-74
2021/09/10 11:57:33;;;;;;;14.07;9.45;;;28.90;82.30;;;;;;4993833;28;20460;-75
2021/09/10 11:59:58;;;;;;;17.67;12.25;;;28.60;83.10;;;;;;4994447;28;20054;-74
2021/09/10 12:02:24;;;;;;;18.90;14.50;;;28.30;82.90;;;;;;4994339;28;20122;-75
2021/09/10 12:04:57;;;;;;;14.85;9.38;;;28.10;84.30;;;;;;4992751;28;20033;-76
2021/09/10 12:07:31;;;;;;;14.88;10.13;;;27.90;84.00;;;;;;4993747;28;20037;-76
2021/09/10 12:09:57;;;;;;;21.15;15.95;;;27.80;84.70;;;;;;4993442;28;20038;-79
2021/09/10 12:12:24;;;;;;;16.30;10.82;;;27.70;84.80;;;;;;4993494;28;20030;-77
2021/09/10 12:14:53;;;;;;;17.02;10.93;;;27.60;85.40;;;;;;4994023;28;20507;-75
2021/09/10 12:17:37;;;;;;;18.13;10.40;;;27.50;86.10;;;;;;4993414;28;20376;-73
2021/09/10 12:20:07;;;;;;;14.90;10.20;;;27.50;86.50;;;;;;4993511;28;20034;-72
2021/09/10 12:22:49;;;;;;;11.75;9.52;;;27.40;87.50;;;;;;4993294;28;20356;-72
2021/09/10 12:25:45;;;;;;;14.35;8.93;;;27.30;88.10;;;;;;4992905;28;20031;-73
2021/09/10 12:28:19;;;;;;;11.25;8.93;;;27.20;88.30;;;;;;4993231;28;20048;-72
2021/09/10 12:30:50;;;;;;;12.88;8.68;;;27.30;88.20;;;;;;4993272;28;20037;-73
2021/09/10 12:33:22;;;;;;;12.60;9.88;;;27.40;89.10;;;;;;4993553;28;20015;-73
2021/09/10 12:35:51;;;;;;;17.05;8.80;;;27.10;89.00;;;;;;4992261;28;20116;-73
2021/09/10 12:38:18;;;;;;;11.90;9.52;;;27.10;89.70;;;;;;4991957;28;20038;-72
2021/09/10 12:40:50;;;;;;;19.08;9.63;;;27.10;88.80;;;;;;4992567;28;20137;-71